Time;durP1;ratioP1;P1;durP2;ratioP2;P2;SDS_P1;SDS_P2;PMS_P1;PMS_P2;Temp;Humidity;BMP_temperature;BMP_pressure;BME280_temperature;BME280_humidity;BME280_pressure;Samples;Min_cycle;Max_cycle;Signal;HPM_P1;HPM_P2
2023/09/17 00:00:56;;;;;;;17.92;14.55;;;;;;;21.83;68.02;101565.59;5029811;28;20041;-74
2023/09/17 00:03:21;;;;;;;16.50;13.98;;;;;;;21.73;67.08;101569.38;5030042;28;20044;-74
2023/09/17 00:05:46;;;;;;;16.83;14.45;;;;;;;21.69;67.17;101566.84;5030649;28;20037;-72
2023/09/17 00:08:18;;;;;;;18.35;15.25;;;;;;;21.45;67.53;101563.81;5030242;28;20037;-73
2023/09/17 00:10:45;;;;;;;18.48;15.30;;;;;;;21.55;67.12;101553.84;5029786;28;20045;-73
2023/09/17 00:13:13;;;;;;;18.58;14.65;;;;;;;21.48;67.65;101560.19;5030137;28;20029;-72
2023/09/17 00:15:39;;;;;;;18.88;14.98;;;;;;;21.63;66.34;101551.94;5029949;28;20392;-73
2023/09/17 00:18:04;;;;;;;20.95;15.38;;;;;;;21.60;66.53;101551.09;5030366;28;20036;-73
2023/09/17 00:20:29;;;;;;;20.02;15.77;;;;;;;21.63;66.29;101548.41;5029518;28;20045;-73
2023/09/17 00:22:55;;;;;;;20.25;14.43;;;;;;;21.76;66.06;101553.41;5030030;28;20205;-73
2023/09/17 00:25:20;;;;;;;18.92;14.93;;;;;;;21.73;66.48;101545.50;5029787;28;20128;-73
2023/09/17 00:27:46;;;;;;;21.92;15.27;;;;;;;21.48;66.57;101541.63;5029746;28;20033;-73
2023/09/17 00:30:15;;;;;;;18.05;14.15;;;;;;;21.62;66.65;101544.00;5029410;28;20040;-74
2023/09/17 00:32:52;;;;;;;18.13;15.60;;;;;;;21.45;66.73;101537.28;5029366;28;20064;-74
2023/09/17 00:35:17;;;;;;;18.52;15.63;;;;;;;21.62;66.16;101536.91;5029323;28;20045;-74
2023/09/17 00:37:43;;;;;;;16.42;14.55;;;;;;;21.59;65.98;101533.47;5027992;28;20029;-74
2023/09/17 00:40:20;;;;;;;18.92;16.00;;;;;;;21.70;66.04;101534.09;5029306;28;20556;-75
2023/09/17 00:42:52;;;;;;;18.83;15.10;;;;;;;21.40;66.45;101525.00;5029686;28;20033;-72
2023/09/17 00:45:23;;;;;;;17.25;14.55;;;;;;;21.56;66.14;101529.06;5029321;28;20493;-73
2023/09/17 00:47:55;;;;;;;19.70;14.82;;;;;;;21.67;65.26;101529.72;5023086;28;20049;-72
2023/09/17 00:50:33;;;;;;;18.35;14.85;;;;;;;21.68;65.69;101520.84;5039282;28;20040;-73
2023/09/17 00:53:05;;;;;;;18.42;14.55;;;;;;;21.68;65.28;101526.16;5030213;28;20120;-73
2023/09/17 00:55:33;;;;;;;19.55;15.05;;;;;;;21.39;65.72;101516.19;5029697;28;20034;-72
2023/09/17 00:57:59;;;;;;;17.48;14.80;;;;;;;21.31;64.95;101511.91;5029827;28;20041;-72
2023/09/17 01:00:40;;;;;;;16.63;14.18;;;;;;;21.67;63.66;101518.22;5028633;28;20052;-72
2023/09/17 01:03:07;;;;;;;18.25;14.75;;;;;;;21.71;63.90;101527.88;5029597;28;20034;-73
2023/09/17 01:05:53;;;;;;;17.50;14.23;;;;;;;21.60;62.61;101516.59;5029107;28;20041;-73
2023/09/17 01:08:28;;;;;;;18.27;15.23;;;;;;;21.48;63.88;101514.22;5029062;28;20041;-72
2023/09/17 01:10:54;;;;;;;17.25;14.43;;;;;;;21.73;63.67;101516.31;5029272;28;20402;-72
2023/09/17 01:13:20;;;;;;;18.20;14.70;;;;;;;21.58;63.25;101514.00;5028778;28;20026;-72
2023/09/17 01:15:48;;;;;;;17.38;14.45;;;;;;;21.59;62.69;101513.06;5022755;28;20056;-72
2023/09/17 01:18:15;;;;;;;17.80;14.68;;;;;;;21.78;62.47;101509.09;5041092;28;20124;-72
2023/09/17 01:21:14;;;;;;;21.17;15.27;;;;;;;21.65;61.31;101506.78;5028741;28;20041;-72
2023/09/17 01:24:26;;;;;;;17.65;14.60;;;;;;;21.54;62.71;101503.47;5021523;28;20120;-73
2023/09/17 01:27:09;;;;;;;18.80;14.38;;;;;;;21.62;61.79;101498.88;5019133;28;20029;-73
2023/09/17 01:29:37;;;;;;;19.25;14.70;;;;;;;21.54;62.60;101499.03;5028689;28;20033;-72
2023/09/17 01:32:06;;;;;;;18.27;14.88;;;;;;;21.77;62.02;101499.41;5029172;28;20042;-72
2023/09/17 01:34:53;;;;;;;19.15;14.45;;;;;;;21.63;61.68;101497.97;5028518;28;20033;-73
2023/09/17 01:37:28;;;;;;;17.27;13.98;;;;;;;21.44;63.33;101493.06;5029270;28;20051;-73
2023/09/17 01:40:05;;;;;;;18.55;14.52;;;;;;;21.71;62.48;101488.91;5028999;28;20394;-73
2023/09/17 01:42:31;;;;;;;19.65;15.18;;;;;;;21.64;61.51;101486.47;5028841;28;20164;-73
2023/09/17 01:44:59;;;;;;;20.08;15.10;;;;;;;21.10;62.84;101472.56;5029105;28;20076;-73
2023/09/17 01:47:25;;;;;;;19.50;15.25;;;;;;;21.33;63.00;101483.59;5028648;28;20038;-73
2023/09/17 01:49:51;;;;;;;19.17;14.63;;;;;;;21.51;62.56;101475.25;5028688;28;20037;-73
2023/09/17 01:52:24;;;;;;;20.45;14.30;;;;;;;21.67;61.82;101476.63;5029002;28;20506;-73
2023/09/17 01:54:53;;;;;;;17.95;14.63;;;;;;;21.59;62.23;101477.75;5032547;28;20037;-73
2023/09/17 01:57:21;;;;;;;19.58;14.50;;;;;;;21.61;61.96;101473.25;5032790;28;20453;-73
2023/09/17 01:59:47;;;;;;;18.27;14.85;;;;;;;21.67;61.32;101481.94;5032186;28;20090;-73
2023/09/17 02:02:15;;;;;;;18.83;14.73;;;;;;;21.64;61.03;101473.19;5032467;28;20670;-73
2023/09/17 02:04:46;;;;;;;17.67;14.30;;;;;;;21.43;62.60;101472.75;5032097;28;20029;-73
2023/09/17 02:07:18;;;;;;;19.92;14.35;;;;;;;21.64;61.02;101466.09;5032219;28;20037;-73
2023/09/17 02:09:49;;;;;;;17.25;14.10;;;;;;;21.70;61.19;101470.41;5031771;28;20057;-73
2023/09/17 02:12:23;;;;;;;19.15;14.20;;;;;;;21.56;61.25;101473.34;5032703;28;20431;-73
2023/09/17 02:14:49;;;;;;;20.30;14.75;;;;;;;21.73;61.34;101471.19;5032251;28;20057;-73
2023/09/17 02:17:14;;;;;;;18.40;14.73;;;;;;;21.73;60.80;101470.31;5032321;28;20427;-73
2023/09/17 02:19:43;;;;;;;16.88;13.95;;;;;;;21.72;60.34;101476.53;5031666;28;20073;-73
2023/09/17 02:22:08;;;;;;;20.55;15.35;;;;;;;21.33;60.55;101478.28;5032272;28;20040;-73
2023/09/17 02:24:34;;;;;;;19.38;15.07;;;;;;;21.15;60.86;101474.25;5031518;28;20065;-73
2023/09/17 02:27:05;;;;;;;18.92;14.75;;;;;;;21.63;60.51;101477.63;5032422;28;20044;-73
2023/09/17 02:29:31;;;;;;;17.10;14.50;;;;;;;21.55;60.75;101474.25;5029469;28;20048;-73
2023/09/17 02:31:56;;;;;;;19.30;15.27;;;;;;;21.39;59.53;101471.09;5031975;28;20045;-73
2023/09/17 02:34:21;;;;;;;17.10;14.25;;;;;;;21.51;59.86;101463.75;5031684;28;20037;-73
2023/09/17 02:36:47;;;;;;;19.95;15.50;;;;;;;21.63;58.72;101466.13;5031886;28;20395;-73
2023/09/17 02:39:20;;;;;;;18.08;14.55;;;;;;;21.70;59.39;101465.09;5031527;28;20025;-73
2023/09/17 02:41:45;;;;;;;19.83;14.35;;;;;;;21.69;59.74;101458.03;5031405;28;20044;-73
2023/09/17 02:44:10;;;;;;;20.17;14.98;;;;;;;21.61;59.14;101458.19;5031964;28;20033;-73
2023/09/17 02:46:35;;;;;;;20.83;15.25;;;;;;;21.45;58.95;101452.38;5031835;28;20047;-73
2023/09/17 02:49:10;;;;;;;17.75;14.77;;;;;;;21.65;59.43;101457.22;5031835;28;20041;-73
2023/09/17 02:51:41;;;;;;;17.92;14.70;;;;;;;21.51;60.30;101463.75;5031182;28;20068;-73
2023/09/17 02:54:10;;;;;;;19.67;15.38;;;;;;;21.57;58.39;101455.66;5031649;28;20538;-73
2023/09/17 02:56:36;;;;;;;17.30;14.30;;;;;;;21.61;58.12;101458.19;5029883;28;20045;-73
2023/09/17 02:59:01;;;;;;;19.90;15.68;;;;;;;21.74;59.00;101458.78;5037455;28;20574;-74
2023/09/17 03:01:26;;;;;;;17.75;14.88;;;;;;;21.52;59.56;101452.25;5032501;28;20065;-75
2023/09/17 03:03:54;;;;;;;18.75;14.23;;;;;;;21.75;58.43;101455.25;5033280;28;20068;-75
2023/09/17 03:06:20;;;;;;;17.83;14.57;;;;;;;21.80;59.06;101461.31;5038044;28;20038;-74
2023/09/17 03:08:45;;;;;;;20.15;15.25;;;;;;;21.59;58.55;101457.34;5040536;28;20514;-72
2023/09/17 03:11:20;;;;;;;20.77;15.02;;;;;;;21.48;58.55;101462.03;5039061;28;20033;-72
2023/09/17 03:13:49;;;;;;;18.88;15.10;;;;;;;21.67;58.65;101463.38;5041773;28;20056;-74
2023/09/17 03:16:21;;;;;;;21.92;15.60;;;;;;;21.66;58.21;101458.09;5033161;28;20029;-73
2023/09/17 03:18:49;;;;;;;19.88;15.40;;;;;;;21.65;58.11;101461.69;5031367;28;20036;-72
2023/09/17 03:21:18;;;;;;;18.80;14.02;;;;;;;21.62;58.60;101452.00;5031111;28;20033;-72
2023/09/17 03:23:43;;;;;;;19.45;15.23;;;;;;;21.63;58.10;101450.22;5029696;28;20029;-72
2023/09/17 03:26:09;;;;;;;19.38;15.38;;;;;;;21.66;57.93;101442.16;5031206;28;20033;-72
2023/09/17 03:28:50;;;;;;;21.55;16.02;;;;;;;21.53;58.18;101444.22;5030473;28;20434;-74
2023/09/17 03:31:18;;;;;;;20.52;15.48;;;;;;;21.48;58.80;101442.59;5030934;28;20029;-72
2023/09/17 03:33:44;;;;;;;20.55;15.05;;;;;;;21.62;58.52;101443.16;5030727;28;20514;-72
2023/09/17 03:36:12;;;;;;;22.08;15.52;;;;;;;21.43;59.01;101450.66;5030761;28;20040;-74
2023/09/17 03:38:38;;;;;;;19.58;15.57;;;;;;;21.39;59.54;101454.28;5030119;28;20061;-74
2023/09/17 03:41:09;;;;;;;19.25;15.18;;;;;;;21.49;59.60;101447.00;5030424;28;20054;-74
2023/09/17 03:43:37;;;;;;;20.17;16.70;;;;;;;21.64;58.84;101441.34;5030477;28;20034;-74
2023/09/17 03:46:05;;;;;;;19.88;15.93;;;;;;;21.35;59.82;101449.94;5030535;28;20026;-74
2023/09/17 03:48:32;;;;;;;20.33;16.52;;;;;;;21.27;59.31;101451.91;5030019;28;20041;-74
2023/09/17 03:50:59;;;;;;;21.70;16.58;;;;;;;21.28;60.48;101451.00;5030351;28;20038;-72
2023/09/17 03:53:25;;;;;;;19.50;15.30;;;;;;;21.66;59.12;101453.66;5030223;28;20033;-74
2023/09/17 03:55:54;;;;;;;22.17;16.10;;;;;;;21.35;60.33;101453.47;5030582;28;20037;-72
2023/09/17 03:58:22;;;;;;;19.65;16.05;;;;;;;21.65;59.53;101449.25;5030072;28;20514;-72
2023/09/17 04:00:50;;;;;;;19.50;15.63;;;;;;;21.58;60.17;101447.66;5030156;28;20038;-72
2023/09/17 04:03:19;;;;;;;21.08;16.17;;;;;;;21.69;59.47;101442.97;5030469;28;20175;-72
2023/09/17 04:05:50;;;;;;;19.90;16.02;;;;;;;21.50;59.52;101444.31;5030335;28;20037;-72
2023/09/17 04:08:16;;;;;;;22.42;15.98;;;;;;;21.50;60.08;101441.66;5030456;28;20033;-72
2023/09/17 04:10:44;;;;;;;19.85;16.33;;;;;;;21.60;59.56;101434.34;5029755;28;20047;-72
2023/09/17 04:13:12;;;;;;;22.08;16.67;;;;;;;21.47;60.12;101444.38;5031337;28;20104;-72
2023/09/17 04:15:38;;;;;;;22.08;15.82;;;;;;;21.34;60.89;101432.31;5030191;28;20034;-74
2023/09/17 04:18:06;;;;;;;19.08;15.05;;;;;;;21.27;60.82;101434.22;5031057;28;20032;-73
2023/09/17 04:20:31;;;;;;;19.67;15.27;;;;;;;21.21;61.43;101426.41;5030472;28;20391;-72
2023/09/17 04:22:57;;;;;;;20.55;15.38;;;;;;;21.48;60.93;101430.19;5030978;28;20045;-73
2023/09/17 04:25:22;;;;;;;19.83;16.13;;;;;;;21.31;60.89;101438.53;5030387;28;20448;-73
2023/09/17 04:27:48;;;;;;;20.25;15.55;;;;;;;21.21;61.35;101436.13;5030898;28;20493;-74
2023/09/17 04:30:16;;;;;;;22.55;16.40;;;;;;;21.46;61.21;101434.69;5030533;28;20112;-74
2023/09/17 04:32:43;;;;;;;18.70;15.73;;;;;;;21.28;61.36;101443.06;5030656;28;20059;-74
2023/09/17 04:35:10;;;;;;;19.67;15.88;;;;;;;21.60;61.15;101442.31;5029115;28;20641;-73
2023/09/17 04:37:38;;;;;;;23.63;16.85;;;;;;;21.40;60.71;101438.34;5029828;28;20033;-73
2023/09/17 04:40:12;;;;;;;23.25;15.65;;;;;;;21.26;62.13;101445.72;5030184;28;20108;-73
2023/09/17 04:42:40;;;;;;;20.30;15.80;;;;;;;21.29;62.08;101437.69;5030354;28;20176;-74
2023/09/17 04:45:06;;;;;;;23.73;17.27;;;;;;;21.32;61.19;101435.00;5030948;28;20112;-73
2023/09/17 04:47:39;;;;;;;19.00;15.60;;;;;;;21.42;61.10;101440.94;5030270;28;20482;-73
2023/09/17 04:50:08;;;;;;;19.85;15.73;;;;;;;21.23;62.01;101435.16;5030087;28;20041;-73
2023/09/17 04:52:36;;;;;;;20.98;16.13;;;;;;;21.18;62.50;101437.06;5030092;28;20041;-73
2023/09/17 04:55:08;;;;;;;21.45;16.08;;;;;;;21.28;61.68;101433.31;5030484;28;20037;-73
2023/09/17 04:57:33;;;;;;;22.52;16.05;;;;;;;21.31;62.01;101446.50;5029817;28;20068;-73
2023/09/17 05:00:10;;;;;;;23.38;15.85;;;;;;;21.24;61.61;101430.75;5030450;28;20120;-73
2023/09/17 05:02:36;;;;;;;19.83;15.57;;;;;;;21.22;62.10;101443.19;5030022;28;20125;-73
2023/09/17 05:05:08;;;;;;;19.27;15.70;;;;;;;21.38;61.86;101439.28;5030290;28;20124;-73
2023/09/17 05:07:34;;;;;;;20.80;15.93;;;;;;;21.32;62.29;101442.06;5029617;28;20449;-73
2023/09/17 05:10:03;;;;;;;20.80;16.33;;;;;;;21.08;62.70;101437.25;5029990;28;20033;-73
2023/09/17 05:12:29;;;;;;;20.90;16.20;;;;;;;21.22;62.06;101437.88;5029395;28;20064;-73
2023/09/17 05:14:54;;;;;;;21.27;16.77;;;;;;;20.96;63.52;101433.97;5029990;28;20052;-73
2023/09/17 05:17:19;;;;;;;21.77;15.98;;;;;;;21.12;62.38;101438.94;5029643;28;20060;-73
2023/09/17 05:19:45;;;;;;;21.35;16.65;;;;;;;21.20;62.77;101434.38;5029873;28;20026;-74
2023/09/17 05:22:13;;;;;;;20.23;16.73;;;;;;;21.20;62.55;101434.38;5029730;28;20096;-73
2023/09/17 05:24:39;;;;;;;20.77;16.17;;;;;;;21.27;62.33;101441.31;5029344;28;20132;-73
2023/09/17 05:27:04;;;;;;;20.13;16.77;;;;;;;21.27;62.41;101436.88;5030131;28;20563;-73
2023/09/17 05:29:35;;;;;;;20.48;17.02;;;;;;;21.36;62.48;101441.97;5033147;28;20037;-73
2023/09/17 05:32:04;;;;;;;21.25;16.13;;;;;;;21.18;63.49;101441.47;5033801;28;20495;-73
2023/09/17 05:34:29;;;;;;;22.13;16.58;;;;;;;20.86;63.45;101437.69;5031467;28;20036;-73
2023/09/17 05:36:57;;;;;;;20.80;16.55;;;;;;;21.17;62.13;101437.06;5033745;28;20033;-73
2023/09/17 05:39:23;;;;;;;22.40;16.38;;;;;;;21.12;63.45;101442.44;5032700;28;20026;-75
2023/09/17 05:41:51;;;;;;;21.63;16.58;;;;;;;20.93;63.34;101439.31;5033525;28;20099;-73
2023/09/17 05:44:16;;;;;;;22.05;17.10;;;;;;;21.13;62.60;101445.97;5033588;28;20546;-75
2023/09/17 05:46:42;;;;;;;19.55;15.40;;;;;;;21.40;61.94;101445.44;5032954;28;20053;-73
2023/09/17 05:49:07;;;;;;;22.80;16.60;;;;;;;21.46;61.76;101447.94;5033226;28;20076;-74
2023/09/17 05:51:32;;;;;;;21.13;16.45;;;;;;;21.16;62.28;101441.53;5032972;28;20132;-73
2023/09/17 05:54:04;;;;;;;21.33;16.38;;;;;;;21.16;62.12;101438.00;5033615;28;20079;-72
2023/09/17 05:56:29;;;;;;;19.65;15.48;;;;;;;21.42;61.19;101439.16;5031029;28;20037;-73
2023/09/17 05:58:57;;;;;;;20.92;16.00;;;;;;;21.33;61.68;101439.38;5033259;28;20039;-73
2023/09/17 06:01:23;;;;;;;19.25;15.40;;;;;;;21.42;61.04;101433.88;5031378;28;20064;-73
2023/09/17 06:03:48;;;;;;;20.50;15.07;;;;;;;21.27;61.70;101436.00;5033396;28;20053;-73
2023/09/17 06:06:13;;;;;;;18.88;15.50;;;;;;;21.41;60.44;101434.75;5033452;28;20033;-73
2023/09/17 06:08:39;;;;;;;21.85;15.65;;;;;;;21.21;61.20;101434.34;5033109;28;20052;-74
2023/09/17 06:11:07;;;;;;;19.77;15.18;;;;;;;21.48;60.28;101438.16;5032521;28;20477;-72
2023/09/17 06:13:32;;;;;;;21.90;16.55;;;;;;;21.05;61.45;101431.09;5032027;28;20041;-73
2023/09/17 06:15:58;;;;;;;19.75;15.55;;;;;;;21.42;61.05;101436.50;5032902;28;20436;-74
2023/09/17 06:18:23;;;;;;;22.30;15.82;;;;;;;21.24;60.25;101426.31;5032809;28;20084;-74
2023/09/17 06:20:52;;;;;;;20.30;15.40;;;;;;;21.19;61.03;101422.91;5032831;28;20394;-73
2023/09/17 06:23:17;;;;;;;20.02;15.10;;;;;;;21.59;59.85;101422.00;5032226;28;20083;-73
2023/09/17 06:25:42;;;;;;;21.98;16.42;;;;;;;21.41;61.02;101421.50;5033971;28;20080;-73
2023/09/17 06:28:08;;;;;;;19.65;15.10;;;;;;;21.46;61.08;101424.06;5033182;28;20064;-74
2023/09/17 06:30:34;;;;;;;20.25;15.63;;;;;;;21.41;61.11;101421.50;5032629;28;20041;-73
2023/09/17 06:32:59;;;;;;;21.20;15.73;;;;;;;21.64;60.72;101420.13;5035274;28;20026;-73
2023/09/17 06:35:24;;;;;;;20.08;15.88;;;;;;;21.22;61.49;101420.19;5037622;28;20029;-73
2023/09/17 06:37:53;;;;;;;20.02;15.05;;;;;;;21.50;60.65;101408.94;5036811;28;20029;-75
2023/09/17 06:40:21;;;;;;;19.25;15.43;;;;;;;21.53;60.81;101415.03;5031886;28;20087;-73
2023/09/17 06:42:49;;;;;;;18.83;14.82;;;;;;;21.54;60.50;101414.13;5032968;28;20047;-73
2023/09/17 06:45:18;;;;;;;17.95;15.10;;;;;;;21.57;60.62;101411.44;5033222;28;20429;-74
2023/09/17 06:47:43;;;;;;;21.85;15.20;;;;;;;21.40;60.70;101410.94;5032280;28;20055;-73
2023/09/17 06:50:09;;;;;;;20.73;14.90;;;;;;;21.32;61.21;101413.78;5032095;28;20033;-73
2023/09/17 06:52:34;;;;;;;19.63;15.68;;;;;;;21.47;61.07;101417.00;5032041;28;20041;-73
2023/09/17 06:55:06;;;;;;;19.85;14.45;;;;;;;21.48;60.57;101419.59;5032207;28;20107;-73
2023/09/17 06:57:31;;;;;;;20.92;15.35;;;;;;;21.42;60.96;101425.91;5031588;28;20067;-73
2023/09/17 06:59:57;;;;;;;18.88;14.05;;;;;;;21.66;60.79;101426.25;5031014;28;20061;-73
2023/09/17 07:02:22;;;;;;;21.30;15.25;;;;;;;21.31;61.94;101429.72;5031287;28;20179;-74
2023/09/17 07:04:48;;;;;;;18.45;13.93;;;;;;;20.76;64.77;101441.44;5032743;28;20061;-74
2023/09/17 07:07:13;;;;;;;18.25;13.90;;;;;;;20.87;65.79;101435.91;5032478;28;20048;-73
2023/09/17 07:09:40;;;;;;;18.30;14.10;;;;;;;20.69;67.01;101444.22;5031623;28;20038;-74
2023/09/17 07:12:11;;;;;;;16.95;13.15;;;;;;;20.45;69.59;101433.19;5032030;28;20041;-74
2023/09/17 07:14:37;;;;;;;18.40;13.98;;;;;;;20.47;69.42;101441.97;5032098;28;20041;-74
2023/09/17 07:17:02;;;;;;;17.13;13.40;;;;;;;20.20;71.61;101448.59;5034850;28;20462;-76
2023/09/17 07:19:27;;;;;;;16.52;13.02;;;;;;;20.08;72.67;101443.50;5032730;28;20035;-75
2023/09/17 07:21:53;;;;;;;17.30;12.98;;;;;;;19.89;73.59;101449.13;5032173;28;20025;-74
2023/09/17 07:24:18;;;;;;;17.63;13.15;;;;;;;19.83;74.82;101450.97;5031119;28;20115;-76
2023/09/17 07:26:44;;;;;;;18.25;13.20;;;;;;;20.04;73.85;101449.75;5031592;28;20099;-73
2023/09/17 07:29:09;;;;;;;18.27;13.23;;;;;;;19.90;74.94;101461.44;5031882;28;20056;-74
2023/09/17 07:31:35;;;;;;;19.13;13.88;;;;;;;19.84;75.72;101460.66;5030572;28;20045;-73
2023/09/17 07:34:03;;;;;;;18.38;13.48;;;;;;;19.78;76.41;101463.41;5031189;28;20029;-72
2023/09/17 07:36:31;;;;;;;20.40;13.90;;;;;;;19.76;76.62;101464.34;5031407;28;20053;-73
2023/09/17 07:38:57;;;;;;;17.55;13.13;;;;;;;19.92;76.55;101454.38;5032065;28;20038;-73
2023/09/17 07:41:22;;;;;;;18.25;12.60;;;;;;;19.98;76.58;101459.56;5031082;28;20079;-72
2023/09/17 07:43:47;;;;;;;20.45;14.00;;;;;;;19.92;76.99;101464.97;5030955;28;20052;-73
2023/09/17 07:46:14;;;;;;;21.35;14.27;;;;;;;19.90;77.10;101451.75;5030933;28;20470;-73
2023/09/17 07:48:43;;;;;;;18.30;12.68;;;;;;;20.03;77.02;101460.38;5030542;28;20068;-74
2023/09/17 07:51:09;;;;;;;18.70;13.57;;;;;;;19.96;77.44;101456.94;5029723;28;20506;-72
2023/09/17 07:53:34;;;;;;;18.48;13.25;;;;;;;19.56;78.99;101440.81;5030273;28;20069;-73
2023/09/17 07:55:59;;;;;;;18.90;13.52;;;;;;;19.83;78.59;101443.03;5030757;28;20715;-75
2023/09/17 07:58:31;;;;;;;21.77;13.68;;;;;;;19.83;78.69;101443.03;5030188;28;20068;-74
2023/09/17 08:00:57;;;;;;;21.75;14.50;;;;;;;20.07;78.14;101449.69;5030277;28;20072;-75
2023/09/17 08:03:28;;;;;;;19.25;13.75;;;;;;;19.63;79.63;101438.97;5029860;28;20073;-75
2023/09/17 08:06:03;;;;;;;20.67;14.05;;;;;;;19.62;80.02;101443.38;5030655;28;20052;-76
2023/09/17 08:08:29;;;;;;;19.40;12.73;;;;;;;19.54;80.68;101453.19;5030327;28;20044;-75
2023/09/17 08:10:57;;;;;;;21.75;13.10;;;;;;;20.08;78.63;101450.56;5030303;28;20029;-75
2023/09/17 08:13:28;;;;;;;19.20;13.75;;;;;;;19.80;79.90;101448.38;5029911;28;20049;-76
2023/09/17 08:15:56;;;;;;;19.45;12.68;;;;;;;19.89;79.23;101446.47;5030677;28;20053;-75
2023/09/17 08:18:25;;;;;;;18.98;12.57;;;;;;;20.09;78.80;101449.69;5029655;28;20033;-75
2023/09/17 08:20:53;;;;;;;19.05;12.48;;;;;;;20.11;78.72;101447.88;5030082;28;20029;-74
2023/09/17 08:23:18;;;;;;;18.63;12.45;;;;;;;20.08;78.48;101450.56;5030088;28;20033;-75
2023/09/17 08:25:44;;;;;;;18.55;12.23;;;;;;;20.16;78.57;101451.31;5028002;28;20042;-74
2023/09/17 08:28:13;;;;;;;19.58;12.88;;;;;;;19.99;78.97;101441.03;5030071;28;20030;-74
2023/09/17 08:30:41;;;;;;;19.70;12.63;;;;;;;19.89;79.58;101443.81;5030071;28;20064;-74
2023/09/17 08:33:10;;;;;;;18.23;12.60;;;;;;;19.93;79.88;101443.78;5030902;28;20034;-77
2023/09/17 08:35:41;;;;;;;19.25;12.43;;;;;;;19.98;79.46;101444.56;5030127;28;20525;-75
2023/09/17 08:38:12;;;;;;;19.38;13.30;;;;;;;19.56;81.08;101445.22;5030405;28;20040;-74
2023/09/17 08:40:39;;;;;;;19.58;12.90;;;;;;;19.56;80.94;101438.16;5029353;28;20554;-75
2023/09/17 08:43:14;;;;;;;17.70;12.57;;;;;;;19.94;79.57;101444.66;5030360;28;20372;-74
2023/09/17 08:45:41;;;;;;;20.10;12.50;;;;;;;19.70;80.19;101448.56;5030062;28;20034;-75
2023/09/17 08:48:07;;;;;;;17.80;11.88;;;;;;;20.02;79.57;101446.25;5029841;28;20080;-75
2023/09/17 08:50:35;;;;;;;18.65;12.05;;;;;;;20.16;78.69;101446.91;5028947;28;20029;-74
2023/09/17 08:53:10;;;;;;;18.08;12.32;;;;;;;20.15;78.95;101449.56;5030632;28;20029;-76
2023/09/17 08:55:36;;;;;;;17.88;12.60;;;;;;;19.77;79.81;101448.41;5029929;28;20030;-75
2023/09/17 08:58:31;;;;;;;18.75;12.27;;;;;;;19.78;80.39;101444.00;5029761;28;20048;-75
2023/09/17 09:01:01;;;;;;;18.70;12.23;;;;;;;19.85;80.31;101435.94;5015781;28;20033;-76
2023/09/17 09:03:28;;;;;;;20.17;13.23;;;;;;;19.97;80.16;101441.94;5035152;28;20467;-76
2023/09/17 09:05:55;;;;;;;20.25;12.80;;;;;;;20.29;78.83;101444.06;5035972;28;20037;-76
2023/09/17 09:08:22;;;;;;;19.00;12.85;;;;;;;20.23;78.93;101442.38;5035329;28;20448;-77
2023/09/17 09:11:00;;;;;;;18.20;12.68;;;;;;;20.30;78.98;101443.16;5035611;28;20495;-77
2023/09/17 09:13:30;;;;;;;19.10;12.15;;;;;;;20.39;79.09;101441.25;5036112;28;20026;-77
2023/09/17 09:15:56;;;;;;;17.10;11.68;;;;;;;20.58;78.63;101450.59;5035364;28;20113;-77
2023/09/17 09:18:24;;;;;;;17.55;12.00;;;;;;;20.44;78.69;101443.78;5034073;28;20026;-77
2023/09/17 09:20:49;;;;;;;17.67;12.05;;;;;;;20.64;77.71;101453.13;5033931;28;20060;-76
2023/09/17 09:23:17;;;;;;;17.30;12.02;;;;;;;20.58;77.93;101447.06;5034201;28;20041;-74
2023/09/17 09:25:55;;;;;;;17.55;11.95;;;;;;;20.65;77.90;101444.28;5034473;28;20033;-76
2023/09/17 09:28:23;;;;;;;15.73;11.23;;;;;;;20.86;77.55;101445.63;5033856;28;20143;-77
2023/09/17 09:30:58;;;;;;;15.93;11.68;;;;;;;20.82;77.32;101448.38;5033973;28;20048;-74
2023/09/17 09:33:24;;;;;;;14.60;11.00;;;;;;;21.01;76.97;101449.75;5034636;28;20087;-77
2023/09/17 09:36:05;;;;;;;15.25;11.02;;;;;;;21.00;76.41;101450.66;5035812;28;20110;-77
2023/09/17 09:38:32;;;;;;;16.25;10.93;;;;;;;20.94;77.31;101446.34;5034217;28;20041;-76
2023/09/17 09:41:00;;;;;;;15.25;10.70;;;;;;;21.18;76.66;101445.00;5034367;28;20049;-74
2023/09/17 09:43:30;;;;;;;14.32;10.55;;;;;;;21.10;76.56;101444.28;5032374;28;20029;-77
2023/09/17 09:46:00;;;;;;;13.50;10.25;;;;;;;21.37;75.76;101440.19;5033622;28;20482;-76
2023/09/17 09:48:28;;;;;;;14.55;10.23;;;;;;;21.38;76.10;101426.88;5034131;28;20045;-77
2023/09/17 09:50:56;;;;;;;15.15;10.75;;;;;;;21.42;75.97;101417.94;5033528;28;20503;-74
2023/09/17 09:53:22;;;;;;;12.00;9.10;;;;;;;21.91;74.43;101410.59;5032963;28;20129;-75
2023/09/17 09:55:48;;;;;;;11.55;9.02;;;;;;;22.09;73.23;101407.50;5033784;28;20117;-75
2023/09/17 09:58:17;;;;;;;12.35;9.32;;;;;;;22.21;72.31;101405.41;5032704;28;20036;-74
2023/09/17 10:00:45;;;;;;;12.23;9.52;;;;;;;22.49;71.39;101394.06;5032120;28;20113;-77
2023/09/17 10:03:29;;;;;;;11.82;9.73;;;;;;;22.47;71.03;101388.78;5032964;28;20120;-75
2023/09/17 10:06:06;;;;;;;12.15;9.23;;;;;;;22.78;69.29;101383.50;5033037;28;20060;-74
2023/09/17 10:08:32;;;;;;;11.52;9.70;;;;;;;22.85;69.47;101384.22;5032555;28;20041;-76
2023/09/17 10:10:58;;;;;;;11.85;9.70;;;;;;;22.73;67.57;101387.22;5032539;28;20033;-76
2023/09/17 10:13:23;;;;;;;11.27;9.57;;;;;;;22.48;69.17;101384.34;5031762;28;20394;-76
2023/09/17 10:15:49;;;;;;;12.65;9.30;;;;;;;22.61;68.88;101378.66;5032463;28;20033;-74
2023/09/17 10:18:16;;;;;;;12.90;9.10;;;;;;;22.62;69.16;101377.75;5032137;28;20042;-74
2023/09/17 10:20:44;;;;;;;12.25;8.88;;;;;;;22.63;69.88;101373.28;5031901;28;20513;-73
2023/09/17 10:23:10;;;;;;;11.48;9.18;;;;;;;22.88;68.64;101370.81;5030124;28;20038;-74
2023/09/17 10:25:38;;;;;;;11.20;9.20;;;;;;;22.60;68.41;101365.41;5031997;28;20380;-74
2023/09/17 10:28:10;;;;;;;12.15;9.00;;;;;;;22.74;68.45;101365.03;5032277;28;20033;-76
2023/09/17 10:30:45;;;;;;;11.23;8.70;;;;;;;22.80;69.00;101368.41;5030942;28;20037;-77
2023/09/17 10:33:13;;;;;;;12.63;9.27;;;;;;;22.35;68.79;101375.84;5031725;28;20077;-76
2023/09/17 10:35:43;;;;;;;13.60;9.75;;;;;;;22.14;68.21;101371.97;5031129;28;20041;-73
2023/09/17 10:38:10;;;;;;;11.02;9.00;;;;;;;22.59;67.83;101368.97;5031944;28;20570;-76
2023/09/17 10:40:37;;;;;;;12.95;9.73;;;;;;;22.38;68.74;101369.59;5031144;28;20128;-76
2023/09/17 10:43:05;;;;;;;11.88;9.05;;;;;;;22.53;68.79;101367.34;5031782;28;20140;-75
2023/09/17 10:45:37;;;;;;;12.07;9.07;;;;;;;22.75;67.74;101369.44;5031335;28;20037;-76
2023/09/17 10:48:04;;;;;;;12.85;9.43;;;;;;;22.72;67.76;101365.09;5031914;28;20082;-76
2023/09/17 10:50:42;;;;;;;12.48;10.00;;;;;;;22.76;67.93;101363.19;5030822;28;20044;-76
2023/09/17 10:53:07;;;;;;;12.00;9.60;;;;;;;22.29;68.60;101377.78;5031384;28;20065;-75
2023/09/17 10:55:41;;;;;;;13.05;9.80;;;;;;;22.44;68.76;101366.75;5030879;28;20057;-75
2023/09/17 10:58:14;;;;;;;13.95;10.10;;;;;;;22.39;69.02;101360.66;5031436;28;20063;-75
2023/09/17 11:00:44;;;;;;;13.33;9.87;;;;;;;22.84;67.75;101364.72;5030876;28;20426;-74
2023/09/17 11:03:13;;;;;;;12.95;10.10;;;;;;;22.87;68.33;101359.28;5031591;28;20371;-74
2023/09/17 11:05:41;;;;;;;14.55;10.05;;;;;;;22.37;68.34;101367.84;5031192;28;20088;-75
2023/09/17 11:08:09;;;;;;;14.50;10.30;;;;;;;22.72;68.10;101359.75;5031336;28;20041;-75
2023/09/17 11:10:41;;;;;;;14.70;10.30;;;;;;;22.89;66.72;101357.47;5030343;28;20468;-76
2023/09/17 11:13:13;;;;;;;17.77;10.43;;;;;;;23.01;67.34;101366.88;5031530;28;20458;-75
2023/09/17 11:15:39;;;;;;;13.95;9.70;;;;;;;23.07;66.76;101361.38;5030789;28;20030;-75